Time;durP1;ratioP1;P1;durP2;ratioP2;P2;SDS_P1;SDS_P2;PMS_P1;PMS_P2;Temp;Humidity;BMP_temperature;BMP_pressure;BME280_temperature;BME280_humidity;BME280_pressure;Samples;Min_cycle;Max_cycle;Signal;HPM_P1;HPM_P2
2022/10/15 00:17:51;;;;;;;116.00;57.43;;;7.00;99.90;;;;;;4877893;28;20472;-88
2022/10/15 00:58:27;;;;;;;135.97;66.17;;;8.00;99.90;;;;;;4890651;28;20432;-87
2022/10/15 01:33:59;;;;;;;156.60;70.70;;;8.20;99.90;;;;;;4810549;29;20836;-85
2022/10/15 01:38:18;;;;;;;156.67;68.97;;;8.20;99.90;;;;;;4744078;29;20518;-85
2022/10/15 01:58:59;;;;;;;164.83;67.53;;;8.30;99.90;;;;;;4723625;29;20251;-85
2022/10/15 02:34:41;;;;;;;130.97;61.57;;;8.00;99.90;;;;;;4712915;29;20232;-85
2022/10/15 03:10:14;;;;;;;156.50;60.67;;;8.00;99.90;;;;;;4823312;28;20242;-87
2022/10/15 03:45:39;;;;;;;121.77;56.63;;;8.10;99.90;;;;;;4677432;29;20235;-89
2022/10/15 04:11:05;;;;;;;140.73;55.97;;;8.00;99.90;;;;;;4678274;29;20286;-86
2022/10/15 04:46:36;;;;;;;142.47;58.00;;;8.20;99.90;;;;;;4838198;29;21389;-87
2022/10/15 05:27:00;;;;;;;134.90;56.10;;;8.20;99.90;;;;;;4719736;29;20320;-87
2022/10/15 05:57:33;;;;;;;130.87;55.63;;;8.60;99.90;;;;;;4683065;29;20244;-86
2022/10/15 08:13:54;;;;;;;55.77;36.93;;;12.10;99.90;;;;;;4714313;29;20444;-87
2022/10/15 08:49:59;;;;;;;49.17;33.27;;;12.90;99.90;;;;;;4828381;28;20263;-87
2022/10/15 09:25:36;;;;;;;39.43;28.87;;;14.10;99.90;;;;;;4801617;29;20228;-87
2022/10/15 09:55:52;;;;;;;30.43;23.80;;;15.40;94.90;;;;;;4727460;29;20454;-87
2022/10/15 10:35:53;;;;;;;24.90;20.20;;;16.20;92.50;;;;;;4805781;29;20644;-87
2022/10/15 11:01:24;;;;;;;22.17;17.40;;;17.00;90.60;;;;;;4750938;29;20501;-87
2022/10/15 11:31:52;;;;;;;20.93;16.33;;;17.10;89.50;;;;;;4638225;30;20506;-86
2022/10/15 12:07:50;;;;;;;18.90;15.50;;;18.50;84.40;;;;;;4700968;29;20949;-86
2022/10/15 12:38:20;;;;;;;16.30;14.60;;;18.00;85.80;;;;;;4782482;29;20710;-88
2022/10/15 13:13:15;;;;;;;16.73;14.93;;;17.80;85.40;;;;;;4739275;29;20531;-88
2022/10/15 13:44:00;;;;;;;21.00;15.07;;;18.10;85.90;;;;;;4791843;29;20191;-88
2022/10/15 14:13:59;;;;;;;19.40;15.80;;;17.50;86.80;;;;;;4747024;29;20223;-86
2022/10/15 14:39:25;;;;;;;19.50;17.13;;;17.40;86.60;;;;;;4737026;29;20535;-84
2022/10/15 15:10:29;;;;;;;20.40;17.20;;;16.90;87.60;;;;;;4758332;29;21263;-88
2022/10/15 15:35:43;;;;;;;21.20;17.43;;;16.40;89.40;;;;;;4742061;29;20219;-86
2022/10/15 15:56:08;;;;;;;20.33;17.50;;;16.30;89.20;;;;;;4663211;30;20362;-86
2022/10/15 16:21:32;;;;;;;24.87;19.67;;;16.00;90.60;;;;;;4696024;30;20292;-91
2022/10/15 16:25:56;;;;;;;23.57;19.57;;;15.90;90.80;;;;;;4679509;30;20233;-87
2022/10/15 16:46:37;;;;;;;25.77;19.77;;;15.60;91.80;;;;;;4956823;28;20248;-87
2022/10/15 17:17:09;;;;;;;33.63;22.73;;;15.50;95.10;;;;;;4781647;29;20287;-87
2022/10/15 17:52:40;;;;;;;33.40;26.03;;;14.20;99.90;;;;;;4872036;29;20276;-88
2022/10/15 18:32:47;;;;;;;32.50;25.57;;;14.30;99.90;;;;;;4844624;29;20225;-86
2022/10/15 18:58:35;;;;;;;33.90;25.80;;;14.90;99.90;;;;;;4763528;29;20761;-88
2022/10/15 19:18:20;;;;;;;34.20;25.77;;;14.00;99.90;;;;;;4680170;30;20217;-89
2022/10/15 19:33:56;;;;;;;32.83;24.53;;;13.90;99.90;;;;;;4672225;30;21565;-88
2022/10/15 20:04:05;;;;;;;29.10;22.63;;;14.10;99.90;;;;;;5943874;23;20825;-87
2022/10/15 20:39:32;;;;;;;27.83;20.93;;;14.10;96.60;;;;;;4787750;29;20495;-87
2022/10/15 21:00:19;;;;;;;28.10;20.83;;;14.00;96.00;;;;;;4723212;29;20227;-88
2022/10/15 21:20:43;;;;;;;25.27;20.17;;;13.70;97.30;;;;;;4719202;29;20251;-89
2022/10/15 21:25:03;;;;;;;25.63;19.03;;;13.70;96.60;;;;;;4683960;30;20450;-89
2022/10/15 21:50:35;;;;;;;20.77;16.03;;;13.90;92.90;;;;;;4677968;30;20747;-89
2022/10/15 22:06:21;;;;;;;20.03;15.57;;;14.10;91.80;;;;;;4681415;30;20235;-88
2022/10/15 22:10:42;;;;;;;22.77;16.47;;;14.10;92.30;;;;;;4605029;30;20466;-87
2022/10/15 23:01:52;;;;;;;19.80;15.47;;;14.20;92.60;;;;;;4677637;30;20425;-88
2022/10/15 23:32:22;;;;;;;18.97;13.93;;;14.00;96.20;;;;;;4713336;30;20569;-88
2022/10/15 23:57:20;;;;;;;16.53;13.13;;;14.00;96.80;;;;;;4689331;29;20583;-87
